Time;durP1;ratioP1;P1;durP2;ratioP2;P2;SDS_P1;SDS_P2;PMS_P1;PMS_P2;Temp;Humidity;BMP_temperature;BMP_pressure;BME280_temperature;BME280_humidity;BME280_pressure;Samples;Min_cycle;Max_cycle;Signal;HPM_P1;HPM_P2
2022/03/28 00:01:45;;;;;;;13.33;9.60;;;;;;;10.57;57.05;102077.59;4956012;28;20450;-67
2022/03/28 00:04:14;;;;;;;9.10;8.20;;;10.50;16.90;;;10.78;57.44;102074.34;4956033;29;20424;-66
2022/03/28 00:06:43;;;;;;;13.70;9.23;;;10.70;18.30;;;10.56;56.89;102064.25;4956203;29;20434;-67
2022/03/28 00:09:12;;;;;;;15.43;9.07;;;10.70;16.80;;;10.84;57.68;102065.53;4956067;29;20450;-67
2022/03/28 00:11:43;;;;;;;10.10;7.87;;;10.60;18.00;;;10.74;56.18;102068.44;4956252;28;20422;-67
2022/03/28 00:14:12;;;;;;;12.63;8.23;;;10.80;16.40;;;10.53;57.15;102070.84;4955716;28;20434;-67
2022/03/28 00:16:40;;;;;;;9.63;8.60;;;10.60;17.10;;;10.18;58.13;102061.28;4954945;29;20523;-66
2022/03/28 00:19:09;;;;;;;12.63;8.40;;;10.30;17.90;;;10.04;58.19;102051.97;4955661;29;20462;-66
2022/03/28 00:21:38;;;;;;;12.90;8.90;;;10.20;18.10;;;10.19;57.71;102054.03;4955102;28;20463;-67
2022/03/28 00:24:07;;;;;;;14.63;8.70;;;10.30;18.50;;;10.24;59.01;102043.53;4955685;29;20959;-66
2022/03/28 00:26:36;;;;;;;13.63;8.23;;;10.20;19.20;;;10.72;56.87;102047.94;4955912;29;20267;-66
2022/03/28 00:29:06;;;;;;;15.13;8.73;;;10.50;19.60;;;10.64;57.78;102053.41;4955646;29;20993;-66
2022/03/28 00:31:35;;;;;;;17.73;9.40;;;10.50;19.10;;;10.71;56.83;102062.50;4938805;28;20463;-66
2022/03/28 00:34:04;;;;;;;12.70;9.00;;;10.60;18.30;;;10.94;57.48;102049.06;4955861;29;20792;-65
2022/03/28 00:36:33;;;;;;;14.53;8.00;;;10.70;19.50;;;10.90;57.11;102049.38;4955912;29;20471;-66
2022/03/28 00:39:02;;;;;;;11.80;9.07;;;10.90;18.20;;;10.82;57.92;102044.03;4971748;29;20432;-67
2022/03/28 00:41:31;;;;;;;14.13;8.80;;;10.70;18.80;;;10.78;56.96;102037.28;4979641;28;20495;-68
2022/03/28 00:44:01;;;;;;;12.88;8.32;;;10.80;18.70;;;10.28;57.43;102037.59;4979895;28;20412;-68
2022/03/28 00:46:32;;;;;;;14.07;8.77;;;10.50;17.50;;;9.38;59.66;102032.38;4964549;29;20196;-67
2022/03/28 00:49:01;;;;;;;12.70;7.90;;;9.90;19.20;;;10.14;59.63;102029.31;4964277;29;20430;-67
2022/03/28 00:51:30;;;;;;;13.97;8.73;;;10.10;21.40;;;10.98;56.87;102026.84;4965534;28;20416;-67
2022/03/28 00:54:00;;;;;;;11.20;8.50;;;10.60;21.20;;;10.42;58.20;102026.06;4965207;29;20418;-67
2022/03/28 00:56:30;;;;;;;14.40;9.02;;;10.50;20.10;;;10.33;58.34;102026.25;4964877;29;20475;-67
2022/03/28 00:58:59;;;;;;;12.57;9.13;;;10.30;21.00;;;10.56;57.97;102016.38;4967556;29;20181;-67
2022/03/28 01:01:29;;;;;;;9.57;8.30;;;10.50;21.30;;;10.62;58.60;102012.97;4978910;28;20478;-67
2022/03/28 01:03:59;;;;;;;10.80;7.77;;;10.50;21.40;;;10.62;58.25;102012.13;4978861;28;20168;-66
2022/03/28 01:06:27;;;;;;;10.30;8.30;;;10.50;21.10;;;10.47;58.08;102014.72;4965596;29;20450;-66
2022/03/28 01:08:57;;;;;;;15.33;9.73;;;10.60;20.60;;;10.25;58.97;102012.75;4956204;29;20432;-66
2022/03/28 01:11:27;;;;;;;12.77;8.33;;;10.30;21.30;;;10.01;59.38;102000.94;4955531;28;20438;-65
2022/03/28 01:13:57;;;;;;;11.95;9.50;;;10.20;22.20;;;10.10;59.26;102006.31;4956261;29;20510;-67
2022/03/28 01:16:28;;;;;;;13.15;8.93;;;10.20;22.20;;;10.49;58.04;101999.16;4955727;29;20196;-66
2022/03/28 01:18:58;;;;;;;11.70;8.00;;;10.50;22.40;;;10.40;58.97;102005.63;4956039;29;20278;-66
2022/03/28 01:21:28;;;;;;;11.80;8.27;;;10.50;21.90;;;10.10;59.01;101998.22;4955782;28;20895;-66
2022/03/28 01:23:57;;;;;;;15.90;8.60;;;10.30;21.60;;;9.98;60.54;101990.44;4937900;29;20957;-67
2022/03/28 01:26:26;;;;;;;15.00;10.77;;;10.10;23.30;;;9.90;59.79;101990.47;4955297;28;20428;-68
2022/03/28 01:28:55;;;;;;;14.43;9.95;;;10.00;23.00;;;9.82;60.72;101985.09;4956235;29;20433;-66
2022/03/28 01:31:23;;;;;;;13.25;9.30;;;9.90;25.50;;;9.96;59.43;101981.69;4956096;28;20195;-65
2022/03/28 01:33:52;;;;;;;11.43;9.75;;;10.00;24.10;;;10.14;60.07;101988.72;4956277;29;20274;-67
2022/03/28 01:36:24;;;;;;;10.27;8.93;;;10.10;25.40;;;10.69;58.83;101983.34;4956028;29;20369;-66
2022/03/28 01:38:55;;;;;;;9.85;8.13;;;10.50;24.00;;;10.79;58.24;101978.56;4954973;29;20455;-65
2022/03/28 01:41:23;;;;;;;11.60;8.48;;;10.70;23.00;;;10.65;58.31;101977.41;4954364;28;20212;-65
2022/03/28 01:43:52;;;;;;;10.00;9.00;;;10.60;22.80;;;10.51;58.31;101970.03;4954477;29;20189;-66
2022/03/28 01:46:21;;;;;;;13.87;9.53;;;10.60;22.30;;;10.56;58.99;101980.31;4954717;29;20434;-66
2022/03/28 01:48:49;;;;;;;11.83;8.10;;;10.50;23.80;;;10.94;57.90;101976.75;4954065;29;20440;-67
2022/03/28 01:51:18;;;;;;;16.87;8.07;;;10.80;23.30;;;10.79;58.68;101979.41;4954486;28;20467;-66
2022/03/28 01:53:47;;;;;;;11.97;8.67;;;10.70;23.60;;;10.75;58.74;101977.19;4952859;29;20439;-67
2022/03/28 01:56:17;;;;;;;12.50;8.83;;;10.60;23.70;;;10.70;58.06;101972.31;4954176;29;20434;-68
2022/03/28 01:58:46;;;;;;;20.47;10.17;;;10.60;23.10;;;10.56;58.01;101967.66;4954406;29;20515;-67
2022/03/28 02:01:15;;;;;;;11.67;8.70;;;10.60;22.40;;;10.60;58.23;101971.69;4937079;28;20546;-65
2022/03/28 02:03:45;;;;;;;12.67;9.30;;;10.70;23.00;;;10.80;57.91;101967.53;4954044;29;20486;-66
2022/03/28 02:06:14;;;;;;;16.67;10.53;;;10.60;23.60;;;10.64;58.13;101964.06;4953981;29;20893;-66
2022/03/28 02:08:43;;;;;;;13.80;9.07;;;10.60;23.40;;;10.64;57.70;101958.66;4954011;29;20427;-65
2022/03/28 02:11:12;;;;;;;12.93;9.10;;;10.70;22.70;;;10.48;58.18;101951.44;4953753;28;20441;-66
2022/03/28 02:13:42;;;;;;;13.53;9.50;;;10.70;23.00;;;10.13;59.31;101954.59;4954275;29;20428;-66
2022/03/28 02:16:11;;;;;;;11.52;9.15;;;10.40;23.00;;;10.20;59.49;101945.66;4954514;29;20450;-66
2022/03/28 02:18:40;;;;;;;10.63;8.53;;;10.30;24.30;;;10.48;59.22;101943.31;4961148;29;20239;-65
2022/03/28 02:21:09;;;;;;;14.33;10.40;;;10.30;24.80;;;10.33;58.32;101942.38;4959672;29;20431;-66
2022/03/28 02:23:38;;;;;;;12.60;9.70;;;10.50;23.00;;;10.26;58.86;101938.69;4952639;29;20487;-66
2022/03/28 02:26:07;;;;;;;11.93;10.37;;;10.40;23.50;;;10.18;60.16;101936.00;4954423;29;20438;-67
2022/03/28 02:28:36;;;;;;;12.93;8.90;;;10.20;25.00;;;11.04;57.01;101930.47;4954057;29;20825;-66
2022/03/28 02:31:07;;;;;;;11.15;8.65;;;10.90;24.20;;;11.01;58.27;101930.84;4954552;29;20420;-65
2022/03/28 02:33:36;;;;;;;12.73;8.90;;;10.90;23.90;;;11.10;57.32;101932.47;4953834;29;20232;-65
2022/03/28 02:36:05;;;;;;;13.67;9.97;;;11.00;22.40;;;10.63;57.58;101936.16;4953751;29;20428;-67
2022/03/28 02:38:35;;;;;;;11.90;7.63;;;10.90;22.70;;;10.32;58.99;101932.56;4952790;28;20438;-67
2022/03/28 02:41:04;;;;;;;9.98;7.60;;;10.50;23.00;;;10.20;60.68;101926.72;4953716;29;20520;-65
2022/03/28 02:43:32;;;;;;;15.05;9.10;;;10.20;25.20;;;10.34;58.69;101925.13;4953493;28;20220;-66
2022/03/28 02:46:01;;;;;;;13.00;8.50;;;10.30;24.10;;;10.25;59.09;101926.19;4953535;29;20275;-66
2022/03/28 02:48:32;;;;;;;12.83;9.30;;;10.30;24.20;;;10.22;59.00;101923.81;4953048;29;20466;-65
2022/03/28 02:51:00;;;;;;;12.32;7.68;;;10.20;24.40;;;10.02;60.07;101921.47;4953703;29;20917;-67
2022/03/28 02:53:29;;;;;;;14.77;7.68;;;10.10;25.60;;;10.42;59.65;101925.09;4953463;28;20207;-67
2022/03/28 02:55:59;;;;;;;12.35;7.75;;;10.20;26.30;;;10.87;57.33;101921.63;4953697;29;20196;-67
2022/03/28 02:58:28;;;;;;;9.90;7.85;;;10.70;23.40;;;10.79;57.60;101909.00;4952623;29;20231;-67
2022/03/28 03:00:57;;;;;;;11.05;6.95;;;10.70;22.30;;;10.64;58.62;101910.78;4953286;29;20180;-67
2022/03/28 03:03:26;;;;;;;9.02;7.50;;;10.60;23.60;;;10.96;56.46;101901.59;4953143;28;20216;-67
2022/03/28 03:05:57;;;;;;;13.33;8.60;;;10.90;21.40;;;10.96;56.91;101909.72;4953357;29;20657;-65
2022/03/28 03:08:25;;;;;;;16.10;9.10;;;10.90;21.70;;;10.86;57.29;101901.81;4953228;29;20432;-66
2022/03/28 03:10:54;;;;;;;15.87;8.13;;;10.80;22.30;;;10.79;57.92;101898.16;4936039;29;20432;-66
2022/03/28 03:13:23;;;;;;;13.23;7.40;;;10.80;22.70;;;10.88;58.00;101899.78;4953334;28;20422;-67
2022/03/28 03:15:52;;;;;;;14.50;9.20;;;10.70;23.90;;;10.20;58.43;101896.09;4953455;29;20406;-65
2022/03/28 03:18:20;;;;;;;18.83;9.17;;;10.50;21.80;;;10.16;60.11;101890.22;4952935;29;20490;-67
2022/03/28 03:20:49;;;;;;;16.23;7.90;;;10.30;23.20;;;10.56;58.12;101886.44;4952998;29;20408;-66
2022/03/28 03:23:19;;;;;;;18.63;9.60;;;10.40;23.30;;;10.41;57.60;101885.50;4952447;28;20718;-67
2022/03/28 03:25:49;;;;;;;11.20;6.80;;;10.50;22.50;;;10.36;58.76;101879.81;4952671;29;20493;-68
2022/03/28 03:28:17;;;;;;;15.63;8.90;;;10.40;24.40;;;10.70;57.09;101871.28;4952587;29;20464;-69
2022/03/28 03:30:46;;;;;;;13.35;6.70;;;10.60;22.00;;;10.45;58.75;101882.28;4953054;29;20394;-67
2022/03/28 03:33:15;;;;;;;14.70;9.00;;;10.40;22.70;;;10.08;58.48;101882.06;4952793;28;20212;-68
2022/03/28 03:35:47;;;;;;;13.73;7.20;;;10.20;23.30;;;10.37;58.60;101881.47;4954166;29;20189;-67
2022/03/28 03:38:15;;;;;;;13.30;8.17;;;10.20;24.50;;;10.28;59.04;101879.84;4964244;29;20414;-67
2022/03/28 03:40:46;;;;;;;21.55;7.85;;;10.30;24.50;;;9.55;60.06;101878.19;4958166;29;20507;-67
2022/03/28 03:43:14;;;;;;;15.13;7.93;;;9.90;24.60;;;9.29;61.22;101871.31;4953437;28;20299;-68
2022/03/28 03:45:43;;;;;;;12.93;6.57;;;;;;;9.38;61.48;101878.38;4953121;29;20790;-66
2022/03/28 03:48:12;;;;;;;17.25;8.60;;;9.40;29.70;;;9.86;59.95;101872.88;4953369;29;20211;-66
2022/03/28 03:50:42;;;;;;;16.17;7.28;;;9.70;28.30;;;9.86;59.73;101870.16;4955510;28;20271;-67
2022/03/28 03:53:10;;;;;;;21.48;8.10;;;9.90;28.90;;;9.65;59.67;101875.28;4958684;28;20208;-67
2022/03/28 03:55:39;;;;;;;10.38;7.20;;;9.70;26.40;;;9.92;61.01;101865.94;4964863;29;20735;-66
2022/03/28 03:58:09;;;;;;;8.02;6.70;;;9.80;29.90;;;10.73;58.84;101866.38;4964703;29;20192;-66
2022/03/28 04:00:38;;;;;;;14.77;9.25;;;10.20;29.10;;;9.76;59.12;101866.81;4961021;29;20192;-68
2022/03/28 04:03:07;;;;;;;19.17;8.18;;;10.00;24.70;;;10.56;59.31;101864.78;4963067;28;20583;-67
2022/03/28 04:05:37;;;;;;;13.35;7.10;;;10.20;27.80;;;10.63;58.25;101854.09;4963369;29;20254;-66
2022/03/28 04:08:07;;;;;;;15.60;9.00;;;10.50;25.20;;;10.77;56.60;101861.44;4964220;29;20196;-67
2022/03/28 04:10:36;;;;;;;13.93;8.50;;;10.70;22.30;;;9.87;59.73;101855.66;4956211;29;20188;-66
2022/03/28 04:13:06;;;;;;;13.80;9.38;;;10.20;24.00;;;9.25;60.76;101851.88;4956049;28;20514;-65
2022/03/28 04:15:36;;;;;;;17.05;7.88;;;9.70;26.30;;;9.71;61.16;101854.84;4956323;29;20188;-68
2022/03/28 04:18:05;;;;;;;14.02;8.30;;;9.60;30.70;;;10.69;58.51;101853.38;4955576;29;20176;-67
2022/03/28 04:20:34;;;;;;;13.48;7.25;;;10.30;27.50;;;10.80;58.25;101850.25;4955566;29;20611;-66
2022/03/28 04:23:03;;;;;;;14.88;7.72;;;10.50;25.60;;;10.78;58.41;101847.75;4955587;28;20208;-67
2022/03/28 04:25:32;;;;;;;13.57;7.82;;;10.60;25.40;;;10.42;58.29;101843.91;4955932;29;20517;-66
2022/03/28 04:28:01;;;;;;;11.82;7.78;;;10.50;23.70;;;10.06;59.83;101845.41;4957712;29;20271;-66
2022/03/28 04:30:29;;;;;;;21.00;10.60;;;10.10;25.30;;;9.67;60.67;101840.84;4939299;29;20200;-67
2022/03/28 04:33:00;;;;;;;17.10;8.85;;;9.80;26.80;;;8.50;61.61;101837.69;4955264;28;20454;-66
2022/03/28 04:35:29;;;;;;;12.32;8.20;;;9.10;25.60;;;7.51;65.03;101839.25;4955778;29;20223;-65
2022/03/28 04:37:59;;;;;;;13.88;8.90;;;8.30;30.60;;;6.94;66.95;101838.88;4955820;29;20194;-66
2022/03/28 04:40:28;;;;;;;14.65;10.27;;;7.70;39.30;;;6.52;68.77;101841.34;4955773;29;20208;-66
2022/03/28 04:42:57;;;;;;;15.73;8.93;;;7.10;59.10;;;6.31;70.30;101840.78;5004466;23;20261;-67
2022/03/28 04:45:32;;;;;;;19.95;10.05;;;6.80;86.60;;;6.23;70.41;101847.91;4977631;28;20179;-66
2022/03/28 04:48:02;;;;;;;17.60;10.55;;;6.60;98.50;;;6.03;70.99;101849.88;4977735;28;20559;-67
2022/03/28 04:50:32;;;;;;;13.75;8.88;;;6.40;99.90;;;5.86;71.79;101842.56;4976372;28;20546;-67
2022/03/28 04:53:01;;;;;;;18.77;10.32;;;6.20;99.90;;;5.79;72.57;101844.16;4965103;28;20208;-66
2022/03/28 04:55:33;;;;;;;13.32;9.82;;;6.10;99.90;;;5.76;72.82;101844.47;4957353;29;20191;-68
2022/03/28 04:58:02;;;;;;;16.45;9.43;;;6.10;99.90;;;5.75;73.39;101840.94;4956860;29;20259;-68
2022/03/28 05:00:31;;;;;;;16.27;9.50;;;6.00;99.90;;;5.75;73.74;101854.34;4956510;28;20212;-67
2022/03/28 05:03:02;;;;;;;15.35;9.85;;;5.90;99.90;;;5.79;73.91;101844.16;4956625;28;20200;-67
2022/03/28 05:05:30;;;;;;;17.75;10.88;;;5.90;99.90;;;5.82;74.02;101851.91;4960608;28;20191;-67
2022/03/28 05:07:59;;;;;;;14.48;10.50;;;5.90;99.90;;;5.80;73.91;101851.22;4974910;28;20657;-67
2022/03/28 05:10:28;;;;;;;16.30;10.40;;;5.90;99.90;;;5.73;74.46;101853.66;4976391;28;20168;-67
2022/03/28 05:12:57;;;;;;;15.98;8.95;;;5.90;99.90;;;5.73;74.17;101853.66;4975585;28;20719;-67
2022/03/28 05:15:25;;;;;;;17.83;11.30;;;5.90;99.90;;;5.72;74.43;101854.63;4975908;28;20637;-67
2022/03/28 05:17:54;;;;;;;15.98;10.88;;;5.80;99.90;;;5.80;74.20;101856.59;4975980;28;20180;-67
2022/03/28 05:20:25;;;;;;;17.20;11.73;;;5.90;99.90;;;5.79;74.47;101852.22;4975639;28;20254;-67
2022/03/28 05:22:57;;;;;;;24.83;12.85;;;5.90;99.90;;;5.82;74.51;101849.22;4975474;28;20211;-67
2022/03/28 05:25:26;;;;;;;22.45;12.35;;;5.90;99.90;;;5.84;74.59;101848.09;4975532;28;20266;-67
2022/03/28 05:27:55;;;;;;;18.20;12.18;;;5.90;99.90;;;5.88;74.36;101845.97;4975593;28;20272;-67
2022/03/28 05:30:24;;;;;;;21.90;12.35;;;5.90;99.90;;;5.91;74.22;101848.34;4975813;28;20218;-67
2022/03/28 05:32:52;;;;;;;15.40;11.52;;;5.90;99.90;;;5.88;74.37;101837.91;4975523;28;20204;-67
2022/03/28 05:35:21;;;;;;;17.10;11.63;;;6.00;99.90;;;5.94;74.23;101842.72;4975527;28;20464;-66
2022/03/28 05:37:53;;;;;;;22.13;12.18;;;5.90;99.90;;;5.99;74.10;101835.03;4975402;28;20211;-67
2022/03/28 05:40:22;;;;;;;17.55;11.30;;;6.00;99.90;;;5.95;74.20;101831.81;4975121;28;20290;-67
2022/03/28 05:42:50;;;;;;;17.85;11.00;;;6.00;99.90;;;5.99;74.42;101826.97;4975005;28;20222;-67
2022/03/28 05:45:19;;;;;;;19.15;12.43;;;6.00;99.90;;;5.99;74.63;101835.03;4968348;28;20252;-68
2022/03/28 05:48:04;;;;;;;22.02;12.25;;;6.00;99.90;;;6.14;74.02;101832.69;4971816;28;20195;-68
2022/03/28 05:50:33;;;;;;;19.55;11.25;;;6.10;99.90;;;6.13;74.02;101837.22;4975167;28;20180;-66
2022/03/28 05:53:03;;;;;;;16.10;10.63;;;6.10;99.90;;;6.17;74.03;101833.25;4975124;28;20250;-68
2022/03/28 05:55:32;;;;;;;13.77;10.98;;;6.20;99.90;;;6.14;74.07;101830.88;4975427;28;20203;-67
2022/03/28 05:58:01;;;;;;;19.67;12.23;;;6.20;99.90;;;6.29;73.68;101826.66;4975602;28;20184;-66
2022/03/28 06:00:30;;;;;;;16.77;10.70;;;6.30;99.90;;;6.21;73.53;101823.00;4975503;28;20199;-67
2022/03/28 06:02:59;;;;;;;16.63;12.23;;;6.30;99.90;;;6.29;73.54;101813.22;4975822;28;20199;-66
2022/03/28 06:05:45;;;;;;;19.08;11.90;;;6.30;99.90;;;6.37;73.14;101821.38;4974807;28;20199;-66
2022/03/28 06:08:15;;;;;;;22.45;11.80;;;6.40;99.90;;;6.44;73.22;101818.88;4974849;28;20207;-67
2022/03/28 06:10:43;;;;;;;15.30;10.85;;;6.40;99.90;;;6.55;72.58;101814.13;4974906;28;20199;-67
2022/03/28 06:13:12;;;;;;;19.60;11.85;;;6.50;99.90;;;6.53;72.67;101813.44;4973751;28;20215;-67
2022/03/28 06:15:41;;;;;;;18.50;11.50;;;6.60;99.90;;;6.50;72.72;101813.75;4974966;28;20618;-67
2022/03/28 06:18:10;;;;;;;22.55;13.30;;;6.50;99.90;;;6.53;72.96;101808.06;4975197;28;20175;-67
2022/03/28 06:20:39;;;;;;;24.52;14.63;;;6.60;99.90;;;6.61;72.70;101803.75;4975131;28;20182;-67
2022/03/28 06:23:09;;;;;;;24.90;12.85;;;6.60;99.90;;;6.73;72.45;101807.94;4974671;28;20772;-66
2022/03/28 06:25:40;;;;;;;21.25;13.05;;;6.70;99.90;;;6.82;72.28;101801.59;4974723;28;20168;-67
2022/03/28 06:28:10;;;;;;;16.92;12.93;;;6.80;99.90;;;6.85;72.43;101795.91;4975105;28;20586;-67
2022/03/28 06:30:39;;;;;;;18.80;12.63;;;6.90;99.90;;;6.95;71.72;101793.97;4974520;28;20172;-68
2022/03/28 06:33:07;;;;;;;17.10;12.70;;;7.00;99.90;;;6.96;72.05;101799.19;4974486;28;20211;-68
2022/03/28 06:35:36;;;;;;;20.58;11.55;;;7.00;99.90;;;7.13;71.42;101792.06;4974520;28;20182;-66
2022/03/28 06:38:05;;;;;;;23.08;14.57;;;7.10;99.90;;;7.21;71.41;101780.53;4974596;28;20897;-69
2022/03/28 06:40:35;;;;;;;17.10;11.95;;;7.20;99.90;;;7.25;71.11;101782.75;4974379;28;20215;-67
2022/03/28 06:43:05;;;;;;;24.48;13.80;;;7.30;99.90;;;7.42;70.73;101781.81;4974406;28;20224;-67
2022/03/28 06:45:36;;;;;;;37.65;19.63;;;7.40;99.90;;;7.50;70.18;101770.25;4973348;28;20262;-68
2022/03/28 06:48:06;;;;;;;16.48;13.40;;;7.50;99.90;;;7.58;70.06;101769.44;4974729;28;20198;-67
2022/03/28 06:50:55;;;;;;;19.90;14.65;;;7.60;99.90;;;7.72;69.62;101766.97;4974495;28;20183;-67
2022/03/28 06:53:24;;;;;;;22.20;15.50;;;7.70;99.90;;;7.52;70.19;101762.84;4974703;28;20211;-67
2022/03/28 06:55:52;;;;;;;22.67;13.43;;;7.60;99.90;;;7.74;69.63;101756.06;4974965;28;20178;-67
2022/03/28 06:58:23;;;;;;;22.65;14.50;;;7.70;99.90;;;7.74;69.27;101751.50;4977532;28;20203;-66
2022/03/28 07:00:52;;;;;;;25.55;14.80;;;7.70;99.90;;;7.89;69.25;101751.69;4976994;28;20262;-68
2022/03/28 07:03:20;;;;;;;23.85;12.88;;;7.80;99.90;;;7.88;68.96;101750.03;4977899;28;20203;-67
2022/03/28 07:05:49;;;;;;;23.30;13.75;;;7.90;99.90;;;8.03;68.76;101747.56;4977384;28;20320;-68
2022/03/28 07:08:18;;;;;;;18.60;12.57;;;8.00;99.90;;;8.21;68.35;101741.00;4969928;28;20186;-68
2022/03/28 07:10:47;;;;;;;20.20;13.10;;;8.10;99.90;;;8.23;67.95;101747.06;4978299;28;20180;-69
2022/03/28 07:13:17;;;;;;;18.40;12.32;;;8.20;99.90;;;8.45;67.83;101733.97;4977921;28;20203;-67
2022/03/28 07:15:47;;;;;;;29.00;13.23;;;8.40;99.90;;;8.61;66.72;101744.78;4975576;28;20191;-67
2022/03/28 07:18:20;;;;;;;26.58;12.27;;;8.50;99.50;;;8.65;66.62;101749.69;4966803;28;20179;-67
2022/03/28 07:20:50;;;;;;;24.58;12.57;;;8.60;98.10;;;8.62;66.62;101741.06;4974096;28;20191;-66
2022/03/28 07:23:19;;;;;;;22.73;12.18;;;8.60;95.80;;;8.81;66.08;101740.69;4973704;28;20258;-67
2022/03/28 07:25:48;;;;;;;17.30;11.48;;;8.70;96.20;;;9.05;65.24;101737.16;4967624;28;20224;-66
2022/03/28 07:28:18;;;;;;;23.30;10.65;;;8.90;93.50;;;9.12;64.98;101732.72;4958451;29;20220;-66
2022/03/28 07:30:49;;;;;;;18.40;12.20;;;9.10;91.70;;;9.04;65.19;101727.34;4958303;29;20191;-66
2022/03/28 07:33:17;;;;;;;16.02;11.77;;;9.00;91.80;;;9.43;64.11;101735.53;4958236;28;20232;-66
2022/03/28 07:35:47;;;;;;;16.42;12.60;;;9.30;90.00;;;9.09;64.20;101730.38;4958321;29;20188;-68
2022/03/28 07:38:16;;;;;;;19.08;12.00;;;9.20;79.60;;;9.12;64.42;101732.72;4958483;29;20630;-66
2022/03/28 07:40:46;;;;;;;18.60;12.75;;;9.20;80.80;;;9.15;64.29;101722.41;4941297;29;20192;-67
2022/03/28 07:43:15;;;;;;;19.55;11.60;;;9.10;80.90;;;9.22;64.10;101729.84;4958351;28;20487;-66
2022/03/28 07:45:44;;;;;;;20.92;13.60;;;9.20;79.70;;;9.43;63.86;101735.53;4958475;29;20200;-68
2022/03/28 07:48:14;;;;;;;15.23;12.48;;;9.30;79.80;;;9.35;63.56;101730.97;4958393;29;20223;-67
2022/03/28 07:50:45;;;;;;;20.02;11.90;;;9.40;74.60;;;9.51;63.39;101721.97;4958414;29;20180;-69
2022/03/28 07:53:19;;;;;;;20.15;11.73;;;9.50;75.90;;;9.54;63.09;101722.47;4950312;29;20704;-67
2022/03/28 07:55:48;;;;;;;20.85;12.95;;;9.50;69.80;;;9.48;63.09;101720.47;4957985;29;20231;-66
2022/03/28 07:58:16;;;;;;;12.95;9.35;;;9.50;67.50;;;9.51;62.91;101716.56;4950286;29;20180;-66
2022/03/28 08:00:47;;;;;;;15.25;11.57;;;9.50;65.60;;;9.69;62.65;101717.16;4958304;29;20619;-67
2022/03/28 08:03:17;;;;;;;15.10;11.38;;;9.60;65.10;;;10.07;61.74;101709.19;4956937;28;20727;-67
2022/03/28 08:05:46;;;;;;;15.77;10.55;;;9.80;62.40;;;10.06;61.55;101705.63;4957947;29;20235;-68
2022/03/28 08:08:15;;;;;;;15.20;10.30;;;10.00;57.30;;;10.33;61.08;101698.88;4958117;29;20525;-67
2022/03/28 08:10:44;;;;;;;17.67;11.40;;;10.10;56.00;;;10.56;60.40;101696.97;4958606;29;20831;-67
2022/03/28 08:13:13;;;;;;;16.03;11.10;;;10.30;53.00;;;10.76;59.87;101697.31;4957517;28;20515;-68
2022/03/28 08:15:41;;;;;;;16.10;10.50;;;10.50;50.00;;;10.71;59.42;101695.16;4957399;29;20420;-67
2022/03/28 08:18:10;;;;;;;12.60;8.30;;;10.70;45.80;;;10.77;59.60;101693.59;4957716;29;20408;-68
2022/03/28 08:20:40;;;;;;;17.97;12.00;;;10.70;44.90;;;10.49;60.01;101689.78;4957647;29;20821;-67
2022/03/28 08:23:09;;;;;;;16.60;10.27;;;10.60;42.70;;;10.48;60.41;101685.38;4957800;28;20816;-67
2022/03/28 08:25:38;;;;;;;16.73;12.40;;;10.50;44.80;;;10.66;59.91;101684.03;4957550;29;20516;-67
2022/03/28 08:28:07;;;;;;;19.03;10.00;;;10.50;45.20;;;11.07;59.30;101680.91;4957426;29;20420;-67
2022/03/28 08:30:36;;;;;;;17.57;10.67;;;10.80;44.30;;;11.27;58.35;101682.88;4957221;29;20435;-69
2022/03/28 08:33:16;;;;;;;18.20;10.53;;;11.10;40.80;;;11.20;58.35;101678.38;4956981;28;20448;-67
2022/03/28 08:35:47;;;;;;;18.23;10.27;;;11.20;38.30;;;11.17;58.31;101674.19;4956463;28;20836;-67
2022/03/28 08:38:16;;;;;;;12.60;9.67;;;11.10;36.90;;;11.43;57.71;101683.69;4957155;29;20503;-67
2022/03/28 08:40:46;;;;;;;19.77;11.03;;;11.30;36.30;;;11.59;57.15;101684.34;4956829;29;20419;-68
2022/03/28 08:43:19;;;;;;;15.90;9.57;;;11.40;35.40;;;11.70;57.12;101669.44;4956846;28;20467;-67
2022/03/28 08:45:51;;;;;;;15.00;10.80;;;11.50;33.90;;;11.71;56.72;101669.25;4957135;29;20504;-67
2022/03/28 08:48:20;;;;;;;13.83;10.50;;;11.60;32.30;;;11.45;57.27;101671.66;4949681;29;20761;-68
2022/03/28 08:50:51;;;;;;;20.10;11.50;;;11.50;31.30;;;11.69;56.96;101663.19;4956772;29;20414;-68
2022/03/28 08:53:20;;;;;;;12.60;10.10;;;11.60;31.20;;;11.86;56.29;101663.00;4957351;28;20460;-67
2022/03/28 08:55:48;;;;;;;15.13;10.67;;;11.70;30.00;;;11.98;56.29;101667.72;4957195;29;20395;-66
2022/03/28 08:58:17;;;;;;;20.90;11.67;;;11.80;29.70;;;11.86;55.97;101663.81;4957157;29;20479;-67
2022/03/28 09:00:46;;;;;;;14.50;11.97;;;11.80;28.20;;;11.85;56.33;101659.44;4956858;29;20546;-67
2022/03/28 09:03:16;;;;;;;17.67;11.60;;;11.80;28.20;;;11.71;56.24;101654.88;4957287;28;20794;-66
2022/03/28 09:05:49;;;;;;;14.13;12.47;;;11.70;27.40;;;11.93;56.06;101655.75;4956903;29;20438;-69
2022/03/28 09:08:25;;;;;;;16.47;11.73;;;11.80;27.80;;;12.03;55.39;101648.16;4957210;29;20438;-67
2022/03/28 09:10:54;;;;;;;17.13;11.37;;;11.90;26.30;;;12.04;55.30;101649.81;4956893;29;20475;-67
2022/03/28 09:13:23;;;;;;;13.67;11.07;;;12.00;26.10;;;11.84;55.92;101632.50;4957209;28;20769;-67
2022/03/28 09:15:55;;;;;;;15.10;11.30;;;11.90;26.20;;;12.00;55.20;101632.25;4939936;29;20402;-66
2022/03/28 09:18:28;;;;;;;13.40;11.00;;;12.00;25.30;;;12.16;54.87;101631.97;4955806;29;20410;-67
2022/03/28 09:20:59;;;;;;;14.00;9.70;;;12.00;25.10;;;12.59;54.35;101632.75;4956982;29;20516;-67
2022/03/28 09:23:39;;;;;;;16.67;10.47;;;12.30;25.00;;;12.83;53.06;101639.63;4955414;28;20533;-67
2022/03/28 09:26:12;;;;;;;12.40;9.53;;;12.60;22.80;;;12.91;52.83;101631.31;4956507;29;20457;-67
2022/03/28 09:28:48;;;;;;;13.77;9.77;;;12.70;21.90;;;12.54;53.03;101633.34;4956303;29;20419;-67
2022/03/28 09:31:25;;;;;;;13.00;9.87;;;12.70;20.40;;;12.91;53.13;101625.88;4956497;29;20418;-66
2022/03/28 09:34:00;;;;;;;13.33;10.90;;;12.70;21.50;;;13.13;51.97;101607.63;4956219;28;20426;-67
2022/03/28 09:36:49;;;;;;;15.37;9.07;;;12.90;20.30;;;13.12;52.44;101614.94;4956143;29;20430;-67
2022/03/28 09:39:23;;;;;;;17.17;11.33;;;12.90;19.90;;;13.13;51.90;101619.34;4956016;29;20394;-67
2022/03/28 09:42:02;;;;;;;19.00;10.77;;;13.10;19.00;;;13.08;51.98;101617.19;4955866;28;20913;-67
2022/03/28 09:44:39;;;;;;;13.97;10.60;;;13.00;19.00;;;13.09;51.45;101615.31;4956061;29;20390;-68
2022/03/28 09:47:11;;;;;;;13.27;10.60;;;13.00;17.50;;;13.00;51.30;101611.94;4955560;28;20430;-67
2022/03/28 09:49:42;;;;;;;13.27;9.10;;;13.00;17.10;;;12.84;51.95;101603.25;4956442;29;20386;-67
2022/03/28 09:52:13;;;;;;;14.37;11.17;;;12.80;17.30;;;13.12;51.58;101595.91;4955954;28;20540;-68
2022/03/28 09:54:54;;;;;;;18.43;10.90;;;12.90;17.50;;;13.30;51.18;101598.97;4955808;29;20441;-66
2022/03/28 09:57:25;;;;;;;14.30;10.47;;;13.00;17.10;;;13.60;50.54;101591.31;4955851;29;20474;-68
2022/03/28 10:00:09;;;;;;;16.97;10.70;;;13.30;16.90;;;14.07;49.91;101590.34;4955841;29;20526;-67
2022/03/28 10:02:38;;;;;;;11.57;9.10;;;13.60;16.40;;;13.72;49.27;101584.22;4955665;28;20535;-68
2022/03/28 10:05:09;;;;;;;11.40;8.53;;;13.70;13.80;;;13.64;49.23;101578.16;4955377;29;20399;-67
2022/03/28 10:07:38;;;;;;;12.87;8.90;;;13.60;13.30;;;13.47;49.25;101586.66;4955756;29;20474;-67
2022/03/28 10:10:09;;;;;;;9.73;7.30;;;13.60;13.00;;;13.55;48.80;101582.09;4956407;29;20506;-67
2022/03/28 10:12:40;;;;;;;10.93;8.00;;;13.50;12.50;;;13.38;48.93;101579.72;4955607;28;20454;-66
2022/03/28 10:15:09;;;;;;;13.73;9.00;;;13.40;12.10;;;13.54;49.11;101586.69;4955800;29;20881;-67
2022/03/28 10:17:38;;;;;;;17.10;10.60;;;13.40;12.60;;;13.92;48.93;101573.38;4955678;29;20749;-67
2022/03/28 10:20:08;;;;;;;11.33;9.43;;;13.60;12.90;;;13.98;48.22;101580.72;4955576;29;20450;-66